Stone Lake, Wisconsin
Current Conditions -  °F | °C
As of 8:21 AM on Friday 28 Nov 2014 (Local Time) from KHYR Reporting Station
Overcast Overcast  
Wind Chill:   Ceiling: 3300
Heat Index:   Visibility: 8mi
Dew Point:   Wind: 3mph
Humidity: 84%   Direction: NA
Pressure: 30.04"   Gusts: NA
Location:  45.85°N, 91.54°W
Report Text: KHYR 281421Z AUTO VRB03KT 8SM OVC033 M13/M15 A3004 RMK AO2 T11281150
Loading
Personal Weather Stations






























Interactive Weather Map New forecast layout! Learn more

10-Day Weather Forecast

Advertisements
Track Severe Weather on mobile